Aeroporto :
LOGIN :

Iscrizione | Disclaimer

   EN    FR    IT 

 










Sommario :    VFR   VFR Marginale   IFR   IFR Intensivo   IFR Molto Intensivo
Visibilità : 
Base nubi : 
>= 8 km
>= 3000ft
5 / 8 km
1000 / 3000 ft
1500m / 5 km
500 / 1000 ft
800 / 1500m
200 / 500 ft
< 800m
< 200 ft
Simboli :   Temporali  Nebbia  Neve Forte  Precipitazioni Forti  Vento > 20 kt
SIGMETs :   Varie  Temporali  Ghiacco  Turbolenza  Onda orograficha  Ceneri Vulcaniche






- Altitudine del aeroporto : 160 ft
- Codice IATA : LRT


LFRH - Lorient Lann Bihoue

ULTIMO METAR :
  • 150700Z AUTO 34007KT CAVOK 02/02 Q1002 NOSIG

METARs OBSOLETI :
  • 150630Z AUTO 36007KT CAVOK 02/01 Q1002 NOSIG
  • 150600Z AUTO 35006KT CAVOK 02/01 Q1002 NOSIG
  • 150530Z AUTO 01006KT CAVOK 01/01 Q1001 NOSIG
  • 150500Z AUTO 36005KT CAVOK 02/01 Q1001 NOSIG
  • 150430Z AUTO 33003KT 290V020 CAVOK 01/01 Q1001 NOSIG

TAF TAF LFRH
Valido dal 15 a 06 ore il 16 a 06 ore UTC


150500Z 1506/1606 36005KT CAVOK
TEMPO 1513/1515 35005G15KT SHRA SCT030CB BKN040
BECMG 1519/1521 29012KT



MetMap, La meteo Aeronautica in un colpo d'occhio ! - Copyright ORBIFLY Dicembre 2007 - Disclaimer

ORBIFLY MET'MAP TEAM :

Programmazione e sviluppo : Alexandra Zaïnal
Concezione e sviluppo : Baudouin d'Aumeries
Co-Programmazione e sviluppo : Marc-Olivier Méhu
Supporto tecnico e logistico : Manuel Goepfert
Aiuto per la traduzione : Arnaldo La Scala

Contatto : metmap@orbifly.com




FONTI E CREDITI :

   NOAA